sensor_id;sensor_type;location;lat;lon;timestamp;pressure;altitude;pressure_sealevel;temperature
15575;BMP180;7888;46.748;8.102;2022-12-18T00:03:45;94710.00;;;3.00
15575;BMP180;7888;46.748;8.102;2022-12-18T00:06:12;94710.00;;;3.00
15575;BMP180;7888;46.748;8.102;2022-12-18T00:08:40;94716.00;;;3.10
15575;BMP180;7888;46.748;8.102;2022-12-18T00:11:09;94709.00;;;3.00
15575;BMP180;7888;46.748;8.102;2022-12-18T00:13:36;94728.00;;;3.00
15575;BMP180;7888;46.748;8.102;2022-12-18T00:16:08;94725.00;;;3.00
15575;BMP180;7888;46.748;8.102;2022-12-18T00:18:35;94729.00;;;3.00
15575;BMP180;7888;46.748;8.102;2022-12-18T00:21:04;94721.00;;;3.00
15575;BMP180;7888;46.748;8.102;2022-12-18T00:23:32;94720.00;;;3.00
15575;BMP180;7888;46.748;8.102;2022-12-18T00:26:15;94736.00;;;3.00
15575;BMP180;7888;46.748;8.102;2022-12-18T00:28:42;94738.00;;;3.00
15575;BMP180;7888;46.748;8.102;2022-12-18T00:31:12;94741.00;;;3.00
15575;BMP180;7888;46.748;8.102;2022-12-18T00:33:38;94746.00;;;3.00
15575;BMP180;7888;46.748;8.102;2022-12-18T00:36:12;94744.00;;;3.00
15575;BMP180;7888;46.748;8.102;2022-12-18T00:38:39;94748.00;;;3.00
15575;BMP180;7888;46.748;8.102;2022-12-18T00:41:06;94749.00;;;3.00
15575;BMP180;7888;46.748;8.102;2022-12-18T00:43:32;94749.00;;;2.90
15575;BMP180;7888;46.748;8.102;2022-12-18T00:45:57;94752.00;;;2.90
15575;BMP180;7888;46.748;8.102;2022-12-18T00:48:23;94760.00;;;2.90
15575;BMP180;7888;46.748;8.102;2022-12-18T00:50:50;94768.00;;;3.00
15575;BMP180;7888;46.748;8.102;2022-12-18T00:53:17;94769.00;;;2.90
15575;BMP180;7888;46.748;8.102;2022-12-18T00:55:44;94766.00;;;2.90
15575;BMP180;7888;46.748;8.102;2022-12-18T00:58:12;94767.00;;;2.90
15575;BMP180;7888;46.748;8.102;2022-12-18T01:00:38;94758.00;;;2.90
15575;BMP180;7888;46.748;8.102;2022-12-18T01:03:05;94768.00;;;2.90
15575;BMP180;7888;46.748;8.102;2022-12-18T01:05:32;94778.00;;;2.90
15575;BMP180;7888;46.748;8.102;2022-12-18T01:07:58;94776.00;;;2.90
15575;BMP180;7888;46.748;8.102;2022-12-18T01:10:25;94772.00;;;2.90
15575;BMP180;7888;46.748;8.102;2022-12-18T01:12:51;94765.00;;;2.90
15575;BMP180;7888;46.748;8.102;2022-12-18T01:15:18;94783.00;;;2.90
15575;BMP180;7888;46.748;8.102;2022-12-18T01:17:44;94776.00;;;2.90
15575;BMP180;7888;46.748;8.102;2022-12-18T01:20:12;94774.00;;;2.90
15575;BMP180;7888;46.748;8.102;2022-12-18T01:22:38;94772.00;;;2.80
15575;BMP180;7888;46.748;8.102;2022-12-18T01:25:05;94776.00;;;2.80
15575;BMP180;7888;46.748;8.102;2022-12-18T01:27:33;94765.00;;;2.80
15575;BMP180;7888;46.748;8.102;2022-12-18T01:29:59;94762.00;;;2.80
15575;BMP180;7888;46.748;8.102;2022-12-18T01:32:25;94761.00;;;2.80
15575;BMP180;7888;46.748;8.102;2022-12-18T01:34:51;94759.00;;;2.80
15575;BMP180;7888;46.748;8.102;2022-12-18T01:37:16;94757.00;;;2.80
15575;BMP180;7888;46.748;8.102;2022-12-18T01:39:42;94766.00;;;2.80
15575;BMP180;7888;46.748;8.102;2022-12-18T01:42:14;94756.00;;;2.70
15575;BMP180;7888;46.748;8.102;2022-12-18T01:47:49;94752.00;;;2.70
15575;BMP180;7888;46.748;8.102;2022-12-18T01:50:42;94753.00;;;2.70
15575;BMP180;7888;46.748;8.102;2022-12-18T01:53:19;94763.00;;;2.60
15575;BMP180;7888;46.748;8.102;2022-12-18T01:55:58;94759.00;;;2.60
15575;BMP180;7888;46.748;8.102;2022-12-18T01:58:50;94770.00;;;2.60
15575;BMP180;7888;46.748;8.102;2022-12-18T02:01:20;94749.00;;;2.60
15575;BMP180;7888;46.748;8.102;2022-12-18T02:03:47;94760.00;;;2.60
15575;BMP180;7888;46.748;8.102;2022-12-18T02:06:23;94760.00;;;2.60
15575;BMP180;7888;46.748;8.102;2022-12-18T02:09:07;94754.00;;;2.60
15575;BMP180;7888;46.748;8.102;2022-12-18T02:11:55;94762.00;;;2.60
15575;BMP180;7888;46.748;8.102;2022-12-18T02:14:38;94759.00;;;2.60
15575;BMP180;7888;46.748;8.102;2022-12-18T02:17:21;94757.00;;;2.60
15575;BMP180;7888;46.748;8.102;2022-12-18T02:20:20;94762.00;;;2.60
15575;BMP180;7888;46.748;8.102;2022-12-18T02:26:11;94763.00;;;2.50
15575;BMP180;7888;46.748;8.102;2022-12-18T02:28:51;94777.00;;;2.50
15575;BMP180;7888;46.748;8.102;2022-12-18T02:31:29;94783.00;;;2.50
15575;BMP180;7888;46.748;8.102;2022-12-18T02:34:02;94771.00;;;2.50
15575;BMP180;7888;46.748;8.102;2022-12-18T02:36:32;94781.00;;;2.50
15575;BMP180;7888;46.748;8.102;2022-12-18T02:39:00;94781.00;;;2.50
15575;BMP180;7888;46.748;8.102;2022-12-18T02:41:28;94782.00;;;2.50
15575;BMP180;7888;46.748;8.102;2022-12-18T02:44:00;94770.00;;;2.50
15575;BMP180;7888;46.748;8.102;2022-12-18T02:46:35;94760.00;;;2.50
15575;BMP180;7888;46.748;8.102;2022-12-18T02:50:04;94785.00;;;2.50
15575;BMP180;7888;46.748;8.102;2022-12-18T02:53:14;94784.00;;;2.50
15575;BMP180;7888;46.748;8.102;2022-12-18T03:01:16;94789.00;;;2.40
15575;BMP180;7888;46.748;8.102;2022-12-18T03:04:18;94794.00;;;2.40
15575;BMP180;7888;46.748;8.102;2022-12-18T03:06:50;94806.00;;;2.40
15575;BMP180;7888;46.748;8.102;2022-12-18T03:09:28;94795.00;;;2.40
15575;BMP180;7888;46.748;8.102;2022-12-18T03:12:24;94817.00;;;2.50
15575;BMP180;7888;46.748;8.102;2022-12-18T03:17:33;94821.00;;;2.50
15575;BMP180;7888;46.748;8.102;2022-12-18T03:20:07;94826.00;;;2.50
15575;BMP180;7888;46.748;8.102;2022-12-18T03:22:37;94825.00;;;2.50
15575;BMP180;7888;46.748;8.102;2022-12-18T03:25:09;94829.00;;;2.50
15575;BMP180;7888;46.748;8.102;2022-12-18T03:27:40;94824.00;;;2.50
15575;BMP180;7888;46.748;8.102;2022-12-18T03:30:13;94830.00;;;2.40
15575;BMP180;7888;46.748;8.102;2022-12-18T03:32:49;94831.00;;;2.40
15575;BMP180;7888;46.748;8.102;2022-12-18T03:35:24;94829.00;;;2.40
15575;BMP180;7888;46.748;8.102;2022-12-18T03:37:52;94833.00;;;2.40
15575;BMP180;7888;46.748;8.102;2022-12-18T03:40:21;94852.00;;;2.40
15575;BMP180;7888;46.748;8.102;2022-12-18T03:43:18;94859.00;;;2.40
15575;BMP180;7888;46.748;8.102;2022-12-18T03:46:02;94856.00;;;2.40
15575;BMP180;7888;46.748;8.102;2022-12-18T03:48:53;94853.00;;;2.40
15575;BMP180;7888;46.748;8.102;2022-12-18T03:51:59;94869.00;;;2.40
15575;BMP180;7888;46.748;8.102;2022-12-18T03:54:23;94863.00;;;2.30
15575;BMP180;7888;46.748;8.102;2022-12-18T03:57:07;94861.00;;;2.30
15575;BMP180;7888;46.748;8.102;2022-12-18T03:59:37;94879.00;;;2.40
15575;BMP180;7888;46.748;8.102;2022-12-18T04:02:06;94882.00;;;2.40
15575;BMP180;7888;46.748;8.102;2022-12-18T04:04:35;94889.00;;;2.40
15575;BMP180;7888;46.748;8.102;2022-12-18T04:07:04;94884.00;;;2.40
15575;BMP180;7888;46.748;8.102;2022-12-18T04:09:32;94879.00;;;2.40
15575;BMP180;7888;46.748;8.102;2022-12-18T04:11:59;94878.00;;;2.40
15575;BMP180;7888;46.748;8.102;2022-12-18T04:14:25;94881.00;;;2.40
15575;BMP180;7888;46.748;8.102;2022-12-18T04:16:51;94886.00;;;2.30
15575;BMP180;7888;46.748;8.102;2022-12-18T04:19:16;94902.00;;;2.30
15575;BMP180;7888;46.748;8.102;2022-12-18T04:21:42;94896.00;;;2.30
15575;BMP180;7888;46.748;8.102;2022-12-18T04:24:08;94900.00;;;2.30
15575;BMP180;7888;46.748;8.102;2022-12-18T04:26:34;94908.00;;;2.30
15575;BMP180;7888;46.748;8.102;2022-12-18T04:29:00;94911.00;;;2.30
15575;BMP180;7888;46.748;8.102;2022-12-18T04:31:26;94926.00;;;2.30
15575;BMP180;7888;46.748;8.102;2022-12-18T04:33:52;94917.00;;;2.30
15575;BMP180;7888;46.748;8.102;2022-12-18T04:36:18;94918.00;;;2.30
15575;BMP180;7888;46.748;8.102;2022-12-18T04:38:43;94911.00;;;2.30
15575;BMP180;7888;46.748;8.102;2022-12-18T04:41:09;94921.00;;;2.30
15575;BMP180;7888;46.748;8.102;2022-12-18T04:43:35;94917.00;;;2.40
15575;BMP180;7888;46.748;8.102;2022-12-18T04:46:06;94916.00;;;2.40
15575;BMP180;7888;46.748;8.102;2022-12-18T04:48:34;94924.00;;;2.40
15575;BMP180;7888;46.748;8.102;2022-12-18T04:51:00;94923.00;;;2.40
15575;BMP180;7888;46.748;8.102;2022-12-18T04:53:25;94917.00;;;2.40
15575;BMP180;7888;46.748;8.102;2022-12-18T04:56:06;94921.00;;;2.40
15575;BMP180;7888;46.748;8.102;2022-12-18T04:58:33;94913.00;;;2.40
15575;BMP180;7888;46.748;8.102;2022-12-18T05:00:58;94925.00;;;2.40
15575;BMP180;7888;46.748;8.102;2022-12-18T05:03:24;94915.00;;;2.40
15575;BMP180;7888;46.748;8.102;2022-12-18T05:05:51;94912.00;;;2.50
15575;BMP180;7888;46.748;8.102;2022-12-18T05:08:17;94913.00;;;2.50
15575;BMP180;7888;46.748;8.102;2022-12-18T05:10:43;94911.00;;;2.50
15575;BMP180;7888;46.748;8.102;2022-12-18T05:13:09;94912.00;;;2.50
15575;BMP180;7888;46.748;8.102;2022-12-18T05:15:35;94921.00;;;2.50
15575;BMP180;7888;46.748;8.102;2022-12-18T05:18:02;94925.00;;;2.50
15575;BMP180;7888;46.748;8.102;2022-12-18T05:20:29;94928.00;;;2.50
15575;BMP180;7888;46.748;8.102;2022-12-18T05:22:55;94924.00;;;2.50
15575;BMP180;7888;46.748;8.102;2022-12-18T05:25:22;94925.00;;;2.50
15575;BMP180;7888;46.748;8.102;2022-12-18T05:27:48;94916.00;;;2.60
15575;BMP180;7888;46.748;8.102;2022-12-18T05:30:15;94912.00;;;2.60
15575;BMP180;7888;46.748;8.102;2022-12-18T05:32:41;94920.00;;;2.60
15575;BMP180;7888;46.748;8.102;2022-12-18T05:35:10;94914.00;;;2.60
15575;BMP180;7888;46.748;8.102;2022-12-18T05:37:36;94914.00;;;2.60
15575;BMP180;7888;46.748;8.102;2022-12-18T05:40:04;94916.00;;;2.60
15575;BMP180;7888;46.748;8.102;2022-12-18T05:42:30;94915.00;;;2.60
15575;BMP180;7888;46.748;8.102;2022-12-18T05:44:56;94915.00;;;2.60
15575;BMP180;7888;46.748;8.102;2022-12-18T05:47:22;94923.00;;;2.70
15575;BMP180;7888;46.748;8.102;2022-12-18T05:49:48;94911.00;;;2.70
15575;BMP180;7888;46.748;8.102;2022-12-18T05:52:14;94910.00;;;2.70
15575;BMP180;7888;46.748;8.102;2022-12-18T05:54:39;94922.00;;;2.70
15575;BMP180;7888;46.748;8.102;2022-12-18T05:57:05;94921.00;;;2.70
15575;BMP180;7888;46.748;8.102;2022-12-18T05:59:31;94911.00;;;2.80
15575;BMP180;7888;46.748;8.102;2022-12-18T06:01:57;94918.00;;;2.80
15575;BMP180;7888;46.748;8.102;2022-12-18T06:04:23;94908.00;;;2.80
15575;BMP180;7888;46.748;8.102;2022-12-18T06:06:48;94903.00;;;2.80
15575;BMP180;7888;46.748;8.102;2022-12-18T06:09:14;94901.00;;;2.90
15575;BMP180;7888;46.748;8.102;2022-12-18T06:11:40;94907.00;;;2.90
15575;BMP180;7888;46.748;8.102;2022-12-18T06:14:06;94913.00;;;2.90
15575;BMP180;7888;46.748;8.102;2022-12-18T06:16:32;94917.00;;;2.90
15575;BMP180;7888;46.748;8.102;2022-12-18T06:19:00;94920.00;;;2.90
15575;BMP180;7888;46.748;8.102;2022-12-18T06:21:28;94921.00;;;2.90
15575;BMP180;7888;46.748;8.102;2022-12-18T06:23:54;94918.00;;;2.90
15575;BMP180;7888;46.748;8.102;2022-12-18T06:26:19;94918.00;;;3.00
15575;BMP180;7888;46.748;8.102;2022-12-18T06:28:45;94925.00;;;2.90
15575;BMP180;7888;46.748;8.102;2022-12-18T06:31:11;94918.00;;;3.00
15575;BMP180;7888;46.748;8.102;2022-12-18T06:33:38;94912.00;;;2.90
15575;BMP180;7888;46.748;8.102;2022-12-18T06:36:14;94928.00;;;2.90
15575;BMP180;7888;46.748;8.102;2022-12-18T06:38:43;94938.00;;;2.90
15575;BMP180;7888;46.748;8.102;2022-12-18T06:41:17;94947.00;;;2.90
15575;BMP180;7888;46.748;8.102;2022-12-18T06:43:44;94938.00;;;2.90
15575;BMP180;7888;46.748;8.102;2022-12-18T06:46:10;94929.00;;;3.00
15575;BMP180;7888;46.748;8.102;2022-12-18T06:48:36;94940.00;;;3.00
15575;BMP180;7888;46.748;8.102;2022-12-18T06:51:03;94945.00;;;3.00
15575;BMP180;7888;46.748;8.102;2022-12-18T06:53:29;94939.00;;;3.00
15575;BMP180;7888;46.748;8.102;2022-12-18T06:56:05;94946.00;;;3.00
15575;BMP180;7888;46.748;8.102;2022-12-18T06:58:31;94959.00;;;3.00
15575;BMP180;7888;46.748;8.102;2022-12-18T07:01:02;94946.00;;;3.00
15575;BMP180;7888;46.748;8.102;2022-12-18T07:03:28;94963.00;;;3.00
15575;BMP180;7888;46.748;8.102;2022-12-18T07:05:54;94967.00;;;3.00
15575;BMP180;7888;46.748;8.102;2022-12-18T07:08:20;94967.00;;;3.00
15575;BMP180;7888;46.748;8.102;2022-12-18T07:10:46;94958.00;;;3.00
15575;BMP180;7888;46.748;8.102;2022-12-18T07:13:15;94977.00;;;3.00
15575;BMP180;7888;46.748;8.102;2022-12-18T07:15:43;94973.00;;;3.00
15575;BMP180;7888;46.748;8.102;2022-12-18T07:18:08;94970.00;;;3.00
15575;BMP180;7888;46.748;8.102;2022-12-18T07:20:34;94982.00;;;3.00
15575;BMP180;7888;46.748;8.102;2022-12-18T07:23:03;94983.00;;;3.00
15575;BMP180;7888;46.748;8.102;2022-12-18T07:25:29;94990.00;;;3.00
15575;BMP180;7888;46.748;8.102;2022-12-18T07:27:55;94987.00;;;3.00
15575;BMP180;7888;46.748;8.102;2022-12-18T07:30:20;94990.00;;;3.00
15575;BMP180;7888;46.748;8.102;2022-12-18T07:32:46;94986.00;;;3.00
15575;BMP180;7888;46.748;8.102;2022-12-18T07:35:12;95006.00;;;3.00
15575;BMP180;7888;46.748;8.102;2022-12-18T07:37:38;94985.00;;;3.00
15575;BMP180;7888;46.748;8.102;2022-12-18T07:40:04;95002.00;;;3.00
15575;BMP180;7888;46.748;8.102;2022-12-18T07:42:30;95000.00;;;3.00
15575;BMP180;7888;46.748;8.102;2022-12-18T07:44:57;95006.00;;;3.00
15575;BMP180;7888;46.748;8.102;2022-12-18T07:47:23;95012.00;;;3.00
15575;BMP180;7888;46.748;8.102;2022-12-18T07:49:49;95001.00;;;3.00
15575;BMP180;7888;46.748;8.102;2022-12-18T07:52:15;95020.00;;;3.00
15575;BMP180;7888;46.748;8.102;2022-12-18T07:54:41;95009.00;;;2.90
15575;BMP180;7888;46.748;8.102;2022-12-18T07:57:08;95013.00;;;3.00
15575;BMP180;7888;46.748;8.102;2022-12-18T07:59:34;95021.00;;;2.90
15575;BMP180;7888;46.748;8.102;2022-12-18T08:02:00;95028.00;;;2.90
15575;BMP180;7888;46.748;8.102;2022-12-18T08:04:26;95028.00;;;2.90
15575;BMP180;7888;46.748;8.102;2022-12-18T08:06:52;95016.00;;;2.90
15575;BMP180;7888;46.748;8.102;2022-12-18T08:09:18;95038.00;;;2.90
15575;BMP180;7888;46.748;8.102;2022-12-18T08:11:44;95035.00;;;2.90
15575;BMP180;7888;46.748;8.102;2022-12-18T08:14:10;95033.00;;;2.90
15575;BMP180;7888;46.748;8.102;2022-12-18T08:16:36;95043.00;;;2.90
15575;BMP180;7888;46.748;8.102;2022-12-18T08:19:02;95039.00;;;2.90
15575;BMP180;7888;46.748;8.102;2022-12-18T08:21:30;95034.00;;;2.90
15575;BMP180;7888;46.748;8.102;2022-12-18T08:23:59;95037.00;;;2.90
15575;BMP180;7888;46.748;8.102;2022-12-18T08:26:29;95036.00;;;2.90
15575;BMP180;7888;46.748;8.102;2022-12-18T08:28:57;95040.00;;;2.90
15575;BMP180;7888;46.748;8.102;2022-12-18T08:31:25;95044.00;;;2.90
15575;BMP180;7888;46.748;8.102;2022-12-18T08:33:53;95040.00;;;2.90
15575;BMP180;7888;46.748;8.102;2022-12-18T08:36:20;95034.00;;;2.90
15575;BMP180;7888;46.748;8.102;2022-12-18T08:38:46;95037.00;;;2.90
15575;BMP180;7888;46.748;8.102;2022-12-18T08:41:14;95034.00;;;2.90
15575;BMP180;7888;46.748;8.102;2022-12-18T08:43:41;95029.00;;;2.90
15575;BMP180;7888;46.748;8.102;2022-12-18T08:46:32;95045.00;;;2.80
15575;BMP180;7888;46.748;8.102;2022-12-18T08:48:58;95043.00;;;2.90
15575;BMP180;7888;46.748;8.102;2022-12-18T08:51:24;95048.00;;;2.90
15575;BMP180;7888;46.748;8.102;2022-12-18T08:53:50;95043.00;;;2.90
15575;BMP180;7888;46.748;8.102;2022-12-18T08:56:16;95045.00;;;2.80
15575;BMP180;7888;46.748;8.102;2022-12-18T08:58:42;95034.00;;;2.80
15575;BMP180;7888;46.748;8.102;2022-12-18T09:01:11;95031.00;;;2.80
15575;BMP180;7888;46.748;8.102;2022-12-18T09:03:38;95035.00;;;2.80
15575;BMP180;7888;46.748;8.102;2022-12-18T09:06:05;95039.00;;;2.80
15575;BMP180;7888;46.748;8.102;2022-12-18T09:08:31;95035.00;;;2.80
15575;BMP180;7888;46.748;8.102;2022-12-18T09:10:57;95020.00;;;2.80
15575;BMP180;7888;46.748;8.102;2022-12-18T09:13:23;95042.00;;;2.80
15575;BMP180;7888;46.748;8.102;2022-12-18T09:15:52;95028.00;;;2.80
15575;BMP180;7888;46.748;8.102;2022-12-18T09:18:21;95028.00;;;2.90
15575;BMP180;7888;46.748;8.102;2022-12-18T09:20:47;95029.00;;;2.90
15575;BMP180;7888;46.748;8.102;2022-12-18T09:23:14;95023.00;;;2.90
15575;BMP180;7888;46.748;8.102;2022-12-18T09:25:40;95021.00;;;2.90
15575;BMP180;7888;46.748;8.102;2022-12-18T09:28:14;95023.00;;;2.90
15575;BMP180;7888;46.748;8.102;2022-12-18T09:30:48;95017.00;;;2.90
15575;BMP180;7888;46.748;8.102;2022-12-18T09:33:15;95008.00;;;2.90
15575;BMP180;7888;46.748;8.102;2022-12-18T09:35:44;95013.00;;;2.90
15575;BMP180;7888;46.748;8.102;2022-12-18T09:38:17;95010.00;;;2.90
15575;BMP180;7888;46.748;8.102;2022-12-18T09:40:53;95008.00;;;2.90
15575;BMP180;7888;46.748;8.102;2022-12-18T09:46:05;94991.00;;;3.00
15575;BMP180;7888;46.748;8.102;2022-12-18T09:48:40;94990.00;;;3.10
15575;BMP180;7888;46.748;8.102;2022-12-18T09:51:15;94985.00;;;3.20
15575;BMP180;7888;46.748;8.102;2022-12-18T09:53:51;94984.00;;;3.30
15575;BMP180;7888;46.748;8.102;2022-12-18T09:56:21;94982.00;;;3.50
15575;BMP180;7888;46.748;8.102;2022-12-18T09:59:01;94968.00;;;3.60
15575;BMP180;7888;46.748;8.102;2022-12-18T10:01:29;94974.00;;;3.70
15575;BMP180;7888;46.748;8.102;2022-12-18T10:03:56;94977.00;;;3.80
15575;BMP180;7888;46.748;8.102;2022-12-18T10:06:49;94976.00;;;3.90
15575;BMP180;7888;46.748;8.102;2022-12-18T10:12:23;94980.00;;;4.00
15575;BMP180;7888;46.748;8.102;2022-12-18T10:15:10;95000.00;;;4.10
15575;BMP180;7888;46.748;8.102;2022-12-18T10:18:06;94991.00;;;4.10
15575;BMP180;7888;46.748;8.102;2022-12-18T10:20:49;94998.00;;;4.10
15575;BMP180;7888;46.748;8.102;2022-12-18T10:24:02;94993.00;;;4.20
15575;BMP180;7888;46.748;8.102;2022-12-18T10:26:20;94990.00;;;4.20
15575;BMP180;7888;46.748;8.102;2022-12-18T10:28:46;94990.00;;;4.20
15575;BMP180;7888;46.748;8.102;2022-12-18T10:31:23;94990.00;;;4.20
15575;BMP180;7888;46.748;8.102;2022-12-18T10:33:49;94995.00;;;4.30
15575;BMP180;7888;46.748;8.102;2022-12-18T10:36:15;94998.00;;;4.30
15575;BMP180;7888;46.748;8.102;2022-12-18T10:38:42;94999.00;;;4.30
15575;BMP180;7888;46.748;8.102;2022-12-18T10:44:16;95001.00;;;4.30
15575;BMP180;7888;46.748;8.102;2022-12-18T10:46:54;95007.00;;;4.40
15575;BMP180;7888;46.748;8.102;2022-12-18T10:49:27;95017.00;;;4.40
15575;BMP180;7888;46.748;8.102;2022-12-18T10:52:19;95016.00;;;4.40
15575;BMP180;7888;46.748;8.102;2022-12-18T10:54:57;95020.00;;;4.50
15575;BMP180;7888;46.748;8.102;2022-12-18T10:57:38;95027.00;;;4.50
15575;BMP180;7888;46.748;8.102;2022-12-18T11:00:27;95007.00;;;4.60
15575;BMP180;7888;46.748;8.102;2022-12-18T11:02:55;95024.00;;;4.80
15575;BMP180;7888;46.748;8.102;2022-12-18T11:05:34;95028.00;;;5.10
15575;BMP180;7888;46.748;8.102;2022-12-18T11:08:02;95030.00;;;5.50
15575;BMP180;7888;46.748;8.102;2022-12-18T11:10:33;95037.00;;;5.90
15575;BMP180;7888;46.748;8.102;2022-12-18T11:13:22;95044.00;;;6.80
15575;BMP180;7888;46.748;8.102;2022-12-18T11:15:49;95043.00;;;7.80
15575;BMP180;7888;46.748;8.102;2022-12-18T11:18:35;95042.00;;;8.90
15575;BMP180;7888;46.748;8.102;2022-12-18T11:21:11;95036.00;;;9.70
15575;BMP180;7888;46.748;8.102;2022-12-18T11:23:49;95023.00;;;10.10
15575;BMP180;7888;46.748;8.102;2022-12-18T11:26:15;95028.00;;;10.30
15575;BMP180;7888;46.748;8.102;2022-12-18T11:28:50;95034.00;;;10.40
15575;BMP180;7888;46.748;8.102;2022-12-18T11:31:27;95034.00;;;10.40
15575;BMP180;7888;46.748;8.102;2022-12-18T11:34:14;95036.00;;;10.40
15575;BMP180;7888;46.748;8.102;2022-12-18T11:36:46;95031.00;;;10.40
15575;BMP180;7888;46.748;8.102;2022-12-18T11:39:33;95031.00;;;10.30
15575;BMP180;7888;46.748;8.102;2022-12-18T11:42:27;95016.00;;;10.10
15575;BMP180;7888;46.748;8.102;2022-12-18T11:45:08;95011.00;;;10.00
15575;BMP180;7888;46.748;8.102;2022-12-18T11:48:06;95001.00;;;9.90
15575;BMP180;7888;46.748;8.102;2022-12-18T11:50:56;95011.00;;;9.80
15575;BMP180;7888;46.748;8.102;2022-12-18T11:53:25;95008.00;;;9.80
15575;BMP180;7888;46.748;8.102;2022-12-18T11:59:06;95001.00;;;9.70
15575;BMP180;7888;46.748;8.102;2022-12-18T12:01:55;94989.00;;;9.60
15575;BMP180;7888;46.748;8.102;2022-12-18T12:04:36;94989.00;;;9.60
15575;BMP180;7888;46.748;8.102;2022-12-18T12:16:37;94990.00;;;9.30
15575;BMP180;7888;46.748;8.102;2022-12-18T12:19:41;94989.00;;;9.20
15575;BMP180;7888;46.748;8.102;2022-12-18T12:25:51;94980.00;;;9.10
15575;BMP180;7888;46.748;8.102;2022-12-18T12:31:47;94969.00;;;9.00
15575;BMP180;7888;46.748;8.102;2022-12-18T12:34:34;94966.00;;;8.90
15575;BMP180;7888;46.748;8.102;2022-12-18T12:40:02;94959.00;;;8.80
15575;BMP180;7888;46.748;8.102;2022-12-18T12:42:55;94952.00;;;8.80
15575;BMP180;7888;46.748;8.102;2022-12-18T12:46:04;94953.00;;;8.70
15575;BMP180;7888;46.748;8.102;2022-12-18T12:48:50;94964.00;;;8.70
15575;BMP180;7888;46.748;8.102;2022-12-18T12:51:27;94966.00;;;8.70
15575;BMP180;7888;46.748;8.102;2022-12-18T12:53:57;94959.00;;;8.60
15575;BMP180;7888;46.748;8.102;2022-12-18T12:56:39;94955.00;;;8.60
15575;BMP180;7888;46.748;8.102;2022-12-18T12:59:29;94948.00;;;8.50
15575;BMP180;7888;46.748;8.102;2022-12-18T13:04:57;94938.00;;;8.50
15575;BMP180;7888;46.748;8.102;2022-12-18T13:15:38;94952.00;;;8.60
15575;BMP180;7888;46.748;8.102;2022-12-18T13:31:01;94939.00;;;8.50
15575;BMP180;7888;46.748;8.102;2022-12-18T13:33:46;94930.00;;;8.40
15575;BMP180;7888;46.748;8.102;2022-12-18T13:41:45;94936.00;;;8.30
15575;BMP180;7888;46.748;8.102;2022-12-18T13:44:20;94945.00;;;8.30
15575;BMP180;7888;46.748;8.102;2022-12-18T13:46:52;94951.00;;;8.30
15575;BMP180;7888;46.748;8.102;2022-12-18T13:52:26;94938.00;;;8.20
15575;BMP180;7888;46.748;8.102;2022-12-18T13:54:59;94945.00;;;8.20
15575;BMP180;7888;46.748;8.102;2022-12-18T13:57:31;94966.00;;;8.20
15575;BMP180;7888;46.748;8.102;2022-12-18T13:59:59;94968.00;;;8.20
15575;BMP180;7888;46.748;8.102;2022-12-18T14:02:37;94970.00;;;8.10
15575;BMP180;7888;46.748;8.102;2022-12-18T14:05:04;94968.00;;;8.10
15575;BMP180;7888;46.748;8.102;2022-12-18T14:07:30;94973.00;;;8.10
15575;BMP180;7888;46.748;8.102;2022-12-18T14:09:59;94973.00;;;8.00
15575;BMP180;7888;46.748;8.102;2022-12-18T14:12:32;94979.00;;;8.00
15575;BMP180;7888;46.748;8.102;2022-12-18T14:15:40;94982.00;;;7.90
15575;BMP180;7888;46.748;8.102;2022-12-18T14:18:43;94988.00;;;7.80
15575;BMP180;7888;46.748;8.102;2022-12-18T14:21:29;94987.00;;;7.80
15575;BMP180;7888;46.748;8.102;2022-12-18T14:24:20;94990.00;;;7.80
15575;BMP180;7888;46.748;8.102;2022-12-18T14:26:48;94990.00;;;7.80
15575;BMP180;7888;46.748;8.102;2022-12-18T14:29:27;94986.00;;;7.70
15575;BMP180;7888;46.748;8.102;2022-12-18T14:32:12;94984.00;;;7.70
15575;BMP180;7888;46.748;8.102;2022-12-18T14:34:41;94998.00;;;7.70
15575;BMP180;7888;46.748;8.102;2022-12-18T14:37:11;95000.00;;;7.60
15575;BMP180;7888;46.748;8.102;2022-12-18T14:39:38;94990.00;;;7.60
15575;BMP180;7888;46.748;8.102;2022-12-18T14:42:04;94988.00;;;7.50
15575;BMP180;7888;46.748;8.102;2022-12-18T14:44:30;94980.00;;;7.40
15575;BMP180;7888;46.748;8.102;2022-12-18T14:46:56;94990.00;;;7.40
15575;BMP180;7888;46.748;8.102;2022-12-18T14:49:32;94980.00;;;7.30
15575;BMP180;7888;46.748;8.102;2022-12-18T14:52:01;94976.00;;;7.20
15575;BMP180;7888;46.748;8.102;2022-12-18T14:54:30;94987.00;;;7.20
15575;BMP180;7888;46.748;8.102;2022-12-18T14:57:12;94980.00;;;7.10
15575;BMP180;7888;46.748;8.102;2022-12-18T14:59:41;94978.00;;;7.00
15575;BMP180;7888;46.748;8.102;2022-12-18T15:02:25;94975.00;;;7.00
15575;BMP180;7888;46.748;8.102;2022-12-18T15:05:17;94972.00;;;6.90
15575;BMP180;7888;46.748;8.102;2022-12-18T15:07:53;94955.00;;;6.80
15575;BMP180;7888;46.748;8.102;2022-12-18T15:10:26;94947.00;;;6.80
15575;BMP180;7888;46.748;8.102;2022-12-18T15:18:30;94939.00;;;6.50
15575;BMP180;7888;46.748;8.102;2022-12-18T15:21:09;94940.00;;;6.50
15575;BMP180;7888;46.748;8.102;2022-12-18T15:26:15;94938.00;;;6.40
15575;BMP180;7888;46.748;8.102;2022-12-18T15:28:57;94937.00;;;6.40
15575;BMP180;7888;46.748;8.102;2022-12-18T15:31:33;94937.00;;;6.30
15575;BMP180;7888;46.748;8.102;2022-12-18T15:34:14;94938.00;;;6.30
15575;BMP180;7888;46.748;8.102;2022-12-18T15:36:43;94932.00;;;6.30
15575;BMP180;7888;46.748;8.102;2022-12-18T15:39:12;94930.00;;;6.20
15575;BMP180;7888;46.748;8.102;2022-12-18T15:41:38;94934.00;;;6.20
15575;BMP180;7888;46.748;8.102;2022-12-18T15:44:23;94935.00;;;6.10
15575;BMP180;7888;46.748;8.102;2022-12-18T15:46:49;94931.00;;;6.10
15575;BMP180;7888;46.748;8.102;2022-12-18T15:49:15;94939.00;;;6.00
15575;BMP180;7888;46.748;8.102;2022-12-18T15:51:41;94934.00;;;6.00
15575;BMP180;7888;46.748;8.102;2022-12-18T15:54:13;94926.00;;;5.90
15575;BMP180;7888;46.748;8.102;2022-12-18T15:56:42;94923.00;;;5.90
15575;BMP180;7888;46.748;8.102;2022-12-18T15:59:26;94925.00;;;5.90
15575;BMP180;7888;46.748;8.102;2022-12-18T16:01:52;94918.00;;;5.80
15575;BMP180;7888;46.748;8.102;2022-12-18T16:04:21;94909.00;;;5.80
15575;BMP180;7888;46.748;8.102;2022-12-18T16:06:50;94918.00;;;5.70
15575;BMP180;7888;46.748;8.102;2022-12-18T16:09:17;94921.00;;;5.70
15575;BMP180;7888;46.748;8.102;2022-12-18T16:11:44;94915.00;;;5.60
15575;BMP180;7888;46.748;8.102;2022-12-18T16:14:23;94912.00;;;5.60
15575;BMP180;7888;46.748;8.102;2022-12-18T16:17:01;94909.00;;;5.60
15575;BMP180;7888;46.748;8.102;2022-12-18T16:19:28;94899.00;;;5.60
15575;BMP180;7888;46.748;8.102;2022-12-18T16:21:57;94919.00;;;5.50
15575;BMP180;7888;46.748;8.102;2022-12-18T16:24:29;94918.00;;;5.50
15575;BMP180;7888;46.748;8.102;2022-12-18T16:26:58;94929.00;;;5.40
15575;BMP180;7888;46.748;8.102;2022-12-18T16:29:26;94932.00;;;5.40
15575;BMP180;7888;46.748;8.102;2022-12-18T16:32:01;94931.00;;;5.40